Time;durP1;ratioP1;P1;durP2;ratioP2;P2;SDS_P1;SDS_P2;PMS_P1;PMS_P2;Temp;Humidity;BMP_temperature;BMP_pressure;BME280_temperature;BME280_humidity;BME280_pressure;Samples;Min_cycle;Max_cycle;Signal;HPM_P1;HPM_P2
2022/04/14 00:01:23;;;;;;;77.82;9.57;;;;;;;10.08;100.00;97929.50;5000817;28;20768;-57
2022/04/14 00:03:49;;;;;;;62.78;8.48;;;;;;;9.97;100.00;97927.31;5001790;28;20089;-59
2022/04/14 00:06:14;;;;;;;61.35;8.73;;;;;;;9.95;100.00;97923.91;5001718;28;20499;-59
2022/04/14 00:08:39;;;;;;;77.32;9.27;;;;;;;9.64;100.00;97919.91;5005207;28;20025;-56
2022/04/14 00:11:05;;;;;;;68.88;9.05;;;;;;;9.30;100.00;97926.38;5001948;28;20053;-56
2022/04/14 00:13:30;;;;;;;56.40;8.88;;;;;;;9.71;100.00;97913.53;5001565;28;20033;-57
2022/04/14 00:15:57;;;;;;;77.82;9.38;;;;;;;9.52;100.00;97922.97;5001763;28;20701;-55
2022/04/14 00:18:23;;;;;;;75.95;9.75;;;;;;;9.37;100.00;97922.63;5004090;28;20101;-57
2022/04/14 00:20:48;;;;;;;65.55;8.82;;;;;;;9.51;100.00;97918.69;5003045;28;20026;-56
2022/04/14 00:23:13;;;;;;;69.20;9.55;;;;;;;9.37;100.00;97914.81;5000604;28;20395;-57
2022/04/14 00:25:39;;;;;;;78.80;8.88;;;;;;;9.40;100.00;97922.53;5003135;28;20037;-58
2022/04/14 00:28:04;;;;;;;82.95;10.13;;;;;;;9.22;100.00;97918.00;5002312;28;20510;-56
2022/04/14 00:30:29;;;;;;;75.43;9.52;;;;;;;9.43;100.00;97922.41;5001601;28;20664;-56
2022/04/14 00:32:55;;;;;;;68.97;9.45;;;;;;;9.38;100.00;97913.94;5001101;28;20033;-58
2022/04/14 00:35:20;;;;;;;69.80;9.15;;;;;;;9.61;100.00;97920.88;5002825;28;20766;-56
2022/04/14 00:37:46;;;;;;;73.07;9.45;;;;;;;9.65;100.00;97922.44;5003145;28;20029;-57
2022/04/14 00:40:12;;;;;;;57.50;9.35;;;;;;;9.26;100.00;97920.44;4999972;28;20094;-58
2022/04/14 00:42:37;;;;;;;73.68;9.82;;;;;;;9.30;100.00;97921.19;4999122;28;20029;-56
2022/04/14 00:45:03;;;;;;;72.60;10.27;;;;;;;9.15;100.00;97914.75;5003785;28;20079;-56
2022/04/14 00:47:29;;;;;;;74.70;9.75;;;;;;;9.50;100.00;97919.56;5003627;28;20062;-57
2022/04/14 00:49:54;;;;;;;75.03;10.07;;;;;;;9.29;100.00;97916.03;5001079;28;20034;-56
2022/04/14 00:52:22;;;;;;;75.28;10.50;;;;;;;9.35;100.00;97921.00;5002026;28;20087;-57
2022/04/14 00:54:47;;;;;;;106.80;11.52;;;;;;;9.39;100.00;97920.84;5001250;28;20021;-55
2022/04/14 00:57:12;;;;;;;90.63;10.23;;;;;;;9.51;100.00;97929.09;4999456;28;20112;-56
2022/04/14 00:59:38;;;;;;;62.75;9.25;;;;;;;9.51;100.00;97924.72;5001470;28;20034;-56
2022/04/14 01:02:04;;;;;;;59.70;9.35;;;;;;;9.17;100.00;97923.41;5000858;28;20034;-57
2022/04/14 01:04:31;;;;;;;66.47;9.73;;;;;;;9.14;100.00;97914.84;5001285;28;20022;-56
2022/04/14 01:06:56;;;;;;;76.25;9.57;;;;;;;9.58;100.00;97925.34;4999573;28;20037;-56
2022/04/14 01:09:26;;;;;;;75.82;9.45;;;;;;;9.44;100.00;97921.50;5002892;28;20097;-56
2022/04/14 01:11:53;;;;;;;79.43;8.77;;;;;;;9.81;100.00;97921.84;5000253;28;20181;-59
2022/04/14 01:14:26;;;;;;;65.25;9.27;;;;;;;9.57;100.00;97919.28;5004184;28;20268;-56
2022/04/14 01:16:53;;;;;;;78.65;10.13;;;;;;;8.91;100.00;97926.91;4999534;28;20096;-55
2022/04/14 01:19:18;;;;;;;82.82;9.88;;;;;;;8.97;100.00;97918.91;5002877;28;20055;-56
2022/04/14 01:22:06;;;;;;;64.88;9.23;;;;;;;8.79;100.00;97916.97;5001008;28;20034;-56
2022/04/14 01:24:32;;;;;;;61.08;8.55;;;;;;;8.71;100.00;97921.56;5000538;28;20045;-56
2022/04/14 01:26:59;;;;;;;64.82;8.82;;;;;;;9.00;100.00;97923.97;5001578;28;20064;-57
2022/04/14 01:29:26;;;;;;;70.57;9.77;;;;;;;9.24;100.00;97921.41;4998333;28;20080;-56
2022/04/14 01:31:53;;;;;;;103.80;10.90;;;;;;;9.14;100.00;97923.50;4998995;28;20045;-58
2022/04/14 01:34:19;;;;;;;71.93;9.82;;;;;;;9.48;100.00;97918.78;5000941;28;20029;-56
2022/04/14 01:36:44;;;;;;;75.47;10.23;;;;;;;9.46;100.00;97921.44;5003339;28;20384;-57
2022/04/14 01:39:11;;;;;;;73.28;9.88;;;;;;;9.38;100.00;97916.53;5000058;28;20385;-56
2022/04/14 01:41:41;;;;;;;71.53;9.13;;;;;;;9.63;100.00;97924.28;4995070;28;20480;-57
2022/04/14 01:44:07;;;;;;;73.88;10.07;;;;;;;9.70;100.00;97935.28;5002724;28;20069;-57
2022/04/14 01:46:32;;;;;;;65.07;8.70;;;;;;;9.40;100.00;97932.94;5002353;28;20467;-57
2022/04/14 01:48:59;;;;;;;70.85;9.10;;;;;;;9.39;100.00;97920.84;5001386;28;20482;-56
2022/04/14 01:51:25;;;;;;;85.53;10.25;;;;;;;9.01;100.00;97923.09;5000542;28;20042;-57
2022/04/14 01:53:51;;;;;;;70.85;9.80;;;;;;;8.72;100.00;97924.13;5000736;28;20027;-55
2022/04/14 01:56:18;;;;;;;74.07;10.13;;;;;;;9.10;100.00;97932.31;5001347;28;20099;-57
2022/04/14 01:58:43;;;;;;;57.90;9.18;;;;;;;9.24;100.00;97927.47;5001927;28;20049;-58
2022/04/14 02:01:09;;;;;;;69.82;9.70;;;;;;;9.29;100.00;97932.50;5004389;28;20065;-57
2022/04/14 02:03:34;;;;;;;58.33;8.00;;;;;;;9.27;100.00;97936.91;5005133;28;20037;-57
2022/04/14 02:05:59;;;;;;;66.20;10.07;;;;;;;9.17;100.00;97940.75;5003130;28;20045;-57
2022/04/14 02:08:24;;;;;;;69.75;9.57;;;;;;;9.11;100.00;97935.75;5005212;28;20030;-56
2022/04/14 02:10:50;;;;;;;66.35;9.35;;;;;;;9.02;100.00;97942.13;5004122;28;20455;-57
2022/04/14 02:13:15;;;;;;;60.97;8.15;;;;;;;9.19;100.00;97939.78;5004101;28;20451;-57
2022/04/14 02:15:40;;;;;;;69.18;8.68;;;;;;;9.29;100.00;97940.28;5002320;28;20147;-57
2022/04/14 02:18:06;;;;;;;65.13;7.53;;;;;;;9.23;100.00;97945.75;5005115;28;20116;-56
2022/04/14 02:20:31;;;;;;;71.70;9.05;;;;;;;9.15;100.00;97942.53;5007111;28;20038;-57
2022/04/14 02:22:56;;;;;;;49.63;8.68;;;;;;;8.43;100.00;97949.34;5005461;28;20034;-57
2022/04/14 02:25:22;;;;;;;75.75;8.52;;;;;;;8.99;100.00;97950.91;5003954;28;20025;-56
2022/04/14 02:27:47;;;;;;;66.90;9.30;;;;;;;8.80;100.00;97947.25;5004313;28;20022;-57
2022/04/14 02:30:12;;;;;;;69.03;9.25;;;;;;;8.60;100.00;97948.78;5004222;28;20041;-58
2022/04/14 02:32:38;;;;;;;69.57;9.82;;;;;;;8.36;100.00;97946.97;5003865;28;20706;-58
2022/04/14 02:35:04;;;;;;;65.10;9.48;;;;;;;8.33;100.00;97953.13;5002469;28;20049;-57
2022/04/14 02:37:29;;;;;;;70.43;9.20;;;;;;;8.67;100.00;97950.28;5002249;28;20048;-58
2022/04/14 02:39:55;;;;;;;89.95;9.85;;;;;;;8.52;100.00;97943.00;4999941;28;20074;-58
2022/04/14 02:42:20;;;;;;;59.92;8.13;;;;;;;8.42;100.00;97962.41;5002025;28;20037;-57
2022/04/14 02:44:45;;;;;;;93.78;10.77;;;;;;;8.28;100.00;97950.66;5003782;28;20030;-58
2022/04/14 02:47:11;;;;;;;69.97;9.30;;;;;;;8.06;100.00;97954.84;5003249;28;20595;-59
2022/04/14 02:49:36;;;;;;;76.90;9.48;;;;;;;8.32;100.00;97956.59;5003939;28;20022;-57
2022/04/14 02:52:02;;;;;;;72.45;9.38;;;;;;;7.94;100.00;97955.22;5002736;28;20099;-57
2022/04/14 02:54:27;;;;;;;77.25;10.10;;;;;;;8.18;100.00;97962.28;5000712;28;20030;-58
2022/04/14 02:56:52;;;;;;;66.43;9.48;;;;;;;8.06;100.00;97949.66;5003347;28;20563;-57
2022/04/14 02:59:18;;;;;;;65.60;8.85;;;;;;;8.34;100.00;97959.16;5004253;28;20034;-57
2022/04/14 03:01:43;;;;;;;64.32;8.93;;;;;;;8.40;100.00;97943.34;5002884;28;20045;-57
2022/04/14 03:04:08;;;;;;;75.90;9.35;;;;;;;8.32;100.00;97948.81;5002173;28;20029;-57
2022/04/14 03:06:34;;;;;;;65.47;9.35;;;;;;;8.23;100.00;97952.56;5003843;28;20041;-57
2022/04/14 03:08:59;;;;;;;58.72;8.32;;;;;;;8.19;100.00;97955.31;5005002;28;20030;-58
2022/04/14 03:11:24;;;;;;;70.78;9.57;;;;;;;8.10;100.00;97956.44;5002385;28;20050;-56
2022/04/14 03:13:49;;;;;;;56.15;8.02;;;;;;;8.08;100.00;97959.09;5005370;28;20064;-59
2022/04/14 03:16:15;;;;;;;89.57;10.82;;;;;;;7.89;100.00;97960.59;5001446;28;20049;-56
2022/04/14 03:18:41;;;;;;;62.20;8.85;;;;;;;7.70;100.00;97957.66;5000620;28;20809;-57
2022/04/14 03:21:07;;;;;;;59.55;9.18;;;;;;;7.82;100.00;97957.31;5000829;28;20048;-56
2022/04/14 03:23:32;;;;;;;76.20;9.57;;;;;;;7.91;100.00;97964.81;5002962;28;20025;-56
2022/04/14 03:25:57;;;;;;;58.92;9.27;;;;;;;7.61;100.00;97968.34;5002241;28;20056;-57
2022/04/14 03:28:23;;;;;;;66.20;9.38;;;;;;;7.59;100.00;97962.34;5008799;28;20046;-57
2022/04/14 03:30:48;;;;;;;61.08;8.48;;;;;;;7.27;100.00;97964.13;5004261;28;20526;-57
2022/04/14 03:33:14;;;;;;;78.15;9.82;;;;;;;7.47;100.00;97969.59;5004659;28;20084;-57
2022/04/14 03:35:39;;;;;;;64.20;9.43;;;;;;;7.18;100.00;97969.56;5001644;28;20446;-56
2022/04/14 03:38:04;;;;;;;63.20;8.23;;;;;;;7.81;100.00;97970.34;5002368;28;20030;-56
2022/04/14 03:40:30;;;;;;;74.57;9.52;;;;;;;7.63;100.00;97971.75;5003078;28;20124;-57
2022/04/14 03:42:55;;;;;;;64.70;8.88;;;;;;;7.56;100.00;97981.47;5002380;28;20032;-56
2022/04/14 03:45:21;;;;;;;64.15;10.05;;;;;;;7.50;100.00;97984.25;5003265;28;20036;-59
2022/04/14 03:47:46;;;;;;;61.95;8.48;;;;;;;7.65;100.00;97980.34;5002955;28;20026;-58
2022/04/14 03:50:11;;;;;;;65.65;9.32;;;;;;;7.56;100.00;97985.81;5003202;28;20057;-58
2022/04/14 03:52:37;;;;;;;88.47;10.45;;;;;;;7.45;100.00;97986.97;5002567;28;20022;-59
2022/04/14 03:55:02;;;;;;;70.50;9.82;;;;;;;7.19;100.00;97986.84;5003360;28;20483;-57
2022/04/14 03:57:28;;;;;;;64.22;9.52;;;;;;;7.00;100.00;97994.25;5000031;28;20073;-58
2022/04/14 03:59:53;;;;;;;71.25;10.10;;;;;;;7.35;100.00;97988.09;5002732;28;20045;-57
2022/04/14 04:02:18;;;;;;;66.15;9.90;;;;;;;7.35;100.00;97995.88;5001993;28;20483;-61
2022/04/14 04:04:44;;;;;;;98.40;11.48;;;;;;;7.60;100.00;97998.63;5002488;28;20025;-57
2022/04/14 04:07:09;;;;;;;64.63;9.02;;;;;;;7.50;100.00;97998.06;5002774;28;20041;-55
2022/04/14 04:09:35;;;;;;;75.65;10.18;;;;;;;7.67;100.00;97994.13;5004063;28;20083;-55
2022/04/14 04:12:01;;;;;;;55.80;8.40;;;;;;;7.71;100.00;98001.78;5002657;28;20049;-57
2022/04/14 04:14:27;;;;;;;68.00;10.00;;;;;;;7.38;100.00;98003.59;5003340;28;20080;-56
2022/04/14 04:16:52;;;;;;;67.32;9.43;;;;;;;7.27;100.00;98005.63;5004153;28;20042;-56
2022/04/14 04:19:17;;;;;;;71.53;10.10;;;;;;;7.34;100.00;98005.41;5002555;28;20682;-57
2022/04/14 04:21:43;;;;;;;67.25;10.50;;;;;;;7.22;100.00;97999.72;5002779;28;20042;-55
2022/04/14 04:24:08;;;;;;;74.95;10.10;;;;;;;7.64;100.00;98007.19;5001726;28;20068;-55
2022/04/14 04:26:34;;;;;;;70.53;10.07;;;;;;;7.16;100.00;98000.75;5002391;28;20046;-59
2022/04/14 04:28:59;;;;;;;73.40;10.02;;;;;;;7.27;100.00;98005.63;5003896;28;20041;-59
2022/04/14 04:31:24;;;;;;;68.65;10.07;;;;;;;7.56;100.00;97994.44;5000913;28;20049;-55
2022/04/14 04:33:51;;;;;;;65.05;10.10;;;;;;;7.56;100.00;98001.38;5002434;28;20065;-57
2022/04/14 04:36:20;;;;;;;77.88;10.15;;;;;;;7.73;100.00;98001.72;4999060;28;20050;-58
2022/04/14 04:38:46;;;;;;;74.45;10.60;;;;;;;7.87;100.00;98015.16;4999989;28;20547;-58
2022/04/14 04:41:11;;;;;;;69.22;11.40;;;;;;;7.89;100.00;98013.38;5001628;28;20065;-57
2022/04/14 04:43:36;;;;;;;65.57;11.80;;;;;;;7.98;100.00;98012.25;5000353;28;20057;-57
2022/04/14 04:46:02;;;;;;;82.47;12.15;;;;;;;8.02;100.00;98005.22;5003192;28;20030;-58
2022/04/14 04:48:28;;;;;;;71.75;11.50;;;;;;;7.94;100.00;98012.38;5000814;28;20383;-58
2022/04/14 04:50:53;;;;;;;77.38;10.52;;;;;;;8.03;100.00;98018.16;5002444;28;20116;-57
2022/04/14 04:53:18;;;;;;;74.68;9.60;;;;;;;7.52;100.00;98022.22;5002551;28;20044;-57
2022/04/14 04:55:44;;;;;;;59.38;8.48;;;;;;;8.03;100.00;98019.88;5000776;28;20042;-57
2022/04/14 04:58:09;;;;;;;78.10;9.68;;;;;;;7.80;100.00;98016.22;5002372;28;20580;-56
2022/04/14 05:00:35;;;;;;;69.30;8.88;;;;;;;7.08;100.00;98032.06;5000676;28;20731;-56
2022/04/14 05:03:00;;;;;;;48.78;8.93;;;;;;;7.51;100.00;98030.91;5002860;28;20930;-57
2022/04/14 05:05:26;;;;;;;79.82;9.63;;;;;;;7.56;100.00;98042.91;5001058;28;20030;-58
2022/04/14 05:07:51;;;;;;;66.13;9.15;;;;;;;8.26;100.00;98040.81;5001213;28;20029;-57
2022/04/14 05:10:17;;;;;;;73.57;9.80;;;;;;;7.96;100.00;98042.63;5000780;28;20580;-56
2022/04/14 05:12:42;;;;;;;61.63;9.43;;;;;;;7.94;100.00;98043.53;5003772;28;20848;-56
2022/04/14 05:15:08;;;;;;;64.90;10.38;;;;;;;7.64;100.00;98049.56;4999490;28;20026;-56
2022/04/14 05:17:33;;;;;;;86.43;10.45;;;;;;;7.77;100.00;98044.88;5002095;28;20037;-56
2022/04/14 05:19:59;;;;;;;65.20;9.68;;;;;;;8.14;100.00;98054.16;5001699;28;20022;-56
2022/04/14 05:22:24;;;;;;;86.75;10.55;;;;;;;8.00;100.00;98043.38;5001569;28;20080;-58
2022/04/14 05:24:49;;;;;;;98.63;11.63;;;;;;;7.75;100.00;98046.66;5001749;28;20022;-57
2022/04/14 05:27:15;;;;;;;75.97;10.27;;;;;;;7.82;100.00;98048.19;5001546;28;20484;-57
2022/04/14 05:29:40;;;;;;;65.82;9.93;;;;;;;8.41;100.00;98046.44;5001653;28;20080;-59
2022/04/14 05:32:06;;;;;;;71.28;9.95;;;;;;;8.27;100.00;98052.06;5003013;28;20042;-57
2022/04/14 05:34:32;;;;;;;58.63;8.60;;;;;;;8.58;100.00;98054.56;5002494;28;20032;-57
2022/04/14 05:36:58;;;;;;;94.40;17.30;;;;;;;8.07;100.00;98058.72;5003294;28;20040;-58
2022/04/14 05:39:23;;;;;;;84.68;15.48;;;;;;;7.80;100.00;98065.56;5002085;28;20055;-58
2022/04/14 05:41:48;;;;;;;76.55;12.40;;;;;;;7.84;100.00;98061.13;5004593;28;20080;-58
2022/04/14 05:44:14;;;;;;;83.13;13.63;;;;;;;8.43;100.00;98063.72;5005211;28;20098;-59
2022/04/14 05:46:39;;;;;;;85.20;12.73;;;;;;;8.11;100.00;98062.94;5002916;28;20033;-58
2022/04/14 05:49:05;;;;;;;73.57;11.55;;;;;;;8.66;100.00;98065.59;5003867;28;20037;-57
2022/04/14 05:51:30;;;;;;;76.32;10.82;;;;;;;8.85;100.00;98063.22;5006399;28;20095;-58
2022/04/14 05:53:55;;;;;;;78.97;10.70;;;;;;;8.73;100.00;98061.06;5005394;28;20036;-56
2022/04/14 05:56:20;;;;;;;61.47;9.90;;;;;;;9.63;100.00;98067.50;5005188;28;20092;-58
2022/04/14 05:58:46;;;;;;;83.90;10.02;;;;;;;10.23;100.00;98060.03;5004589;28;20458;-58
2022/04/14 06:01:12;;;;;;;69.65;10.13;;;;;;;11.03;100.00;98058.63;5001851;28;20041;-57
2022/04/14 06:03:39;;;;;;;56.72;10.30;;;;;;;11.02;100.00;98063.91;5005519;28;20029;-56
2022/04/14 06:06:05;;;;;;;80.30;10.52;;;;;;;12.29;100.00;98065.28;5004192;28;20069;-58
2022/04/14 06:08:30;;;;;;;67.47;9.70;;;;;;;12.74;100.00;98061.41;5006319;28;20038;-58
2022/04/14 06:10:56;;;;;;;68.78;9.40;;;;;;;14.15;100.00;98058.56;5005294;28;20042;-59
2022/04/14 06:13:21;;;;;;;57.70;8.93;;;;;;;13.63;100.00;98062.16;5005772;28;20033;-59
2022/04/14 06:15:46;;;;;;;60.55;9.38;;;;;;;14.08;100.00;98058.03;5001832;28;20038;-58
2022/04/14 06:18:12;;;;;;;66.95;9.90;;;;;;;15.16;100.00;98059.00;5002997;28;20030;-59
2022/04/14 06:20:37;;;;;;;52.42;9.45;;;;;;;16.89;100.00;98047.44;5004102;28;20185;-58
2022/04/14 06:23:03;;;;;;;67.00;9.20;;;;;;;16.61;100.00;98047.53;5003086;28;20118;-59
2022/04/14 06:25:28;;;;;;;57.08;8.90;;;;;;;18.56;84.70;98050.00;5001341;28;20084;-59
2022/04/14 06:27:55;;;;;;;66.55;9.57;;;;;;;17.54;86.14;98049.22;5005009;28;20084;-59
2022/04/14 06:30:22;;;;;;;58.70;9.38;;;;;;;18.89;80.47;98043.22;5004948;28;20029;-59
2022/04/14 06:32:58;;;;;;;61.17;10.02;;;;;;;19.13;79.19;98050.28;5003859;28;20149;-59
2022/04/14 06:35:24;;;;;;;84.72;11.45;;;;;;;18.99;73.55;98054.78;4999883;28;20127;-60
2022/04/14 06:37:49;;;;;;;77.38;10.93;;;;;;;18.84;76.63;98053.31;4998986;28;20018;-59
2022/04/14 06:40:15;;;;;;;65.10;10.23;;;;;;;18.08;78.99;98053.41;5000541;28;20038;-58
2022/04/14 06:42:40;;;;;;;56.58;10.02;;;;;;;17.79;83.04;98052.81;5003985;28;20056;-57
2022/04/14 06:45:06;;;;;;;59.78;9.80;;;;;;;17.87;85.22;98055.78;5003195;28;20113;-60
2022/04/14 06:47:32;;;;;;;66.10;9.98;;;;;;;18.15;83.26;98050.34;5001450;28;20040;-57
2022/04/14 06:49:57;;;;;;;58.97;10.85;;;;;;;17.26;86.08;98052.03;5006713;28;20034;-60
2022/04/14 06:52:22;;;;;;;65.63;11.00;;;;;;;19.23;74.86;98046.00;5001019;28;20041;-58
2022/04/14 06:54:49;;;;;;;75.10;10.85;;;;;;;19.97;70.63;98037.69;5005512;28;20461;-60
2022/04/14 06:57:14;;;;;;;58.75;10.15;;;;;;;19.88;69.87;98030.47;5002363;28;20045;-59
2022/04/14 06:59:40;;;;;;;60.70;10.75;;;;;;;21.36;63.75;98033.38;4998072;28;20453;-58
2022/04/14 07:02:05;;;;;;;85.93;11.30;;;;;;;21.06;63.55;98028.84;4998203;28;20536;-60
2022/04/14 07:04:31;;;;;;;79.13;10.77;;;;;;;20.27;65.21;98044.13;5000233;28;20377;-59
2022/04/14 07:06:56;;;;;;;54.42;9.13;;;;;;;20.21;68.12;98037.53;5000697;28;20169;-59
2022/04/14 07:09:23;;;;;;;60.08;9.93;;;;;;;19.16;74.15;98035.03;5000990;28;20018;-60
2022/04/14 07:11:49;;;;;;;58.85;9.57;;;;;;;20.74;68.11;98042.13;5003358;28;20056;-59
2022/04/14 07:14:19;;;;;;;75.22;10.82;;;;;;;19.69;67.02;98047.75;4999236;28;20030;-60
2022/04/14 07:16:44;;;;;;;74.80;10.95;;;;;;;20.30;69.46;98049.19;5001223;28;20487;-59
2022/04/14 07:19:09;;;;;;;68.80;10.10;;;;;;;21.09;63.97;98039.19;5002723;28;20586;-58
2022/04/14 07:21:35;;;;;;;70.30;10.32;;;;;;;21.30;64.75;98057.78;5003714;28;20050;-60
2022/04/14 07:24:00;;;;;;;56.17;9.77;;;;;;;20.54;67.00;98063.09;5005383;28;20075;-60
2022/04/14 07:26:25;;;;;;;55.72;9.60;;;;;;;20.35;67.40;98065.56;5003054;28;20084;-62
2022/04/14 07:28:50;;;;;;;58.60;9.82;;;;;;;20.71;67.28;98056.47;5003420;28;20021;-60
2022/04/14 07:31:16;;;;;;;57.78;9.93;;;;;;;19.80;68.74;98055.72;4999895;28;20529;-60
2022/04/14 07:33:41;;;;;;;84.30;11.15;;;;;;;19.52;72.28;98061.41;5000445;28;20741;-59
2022/04/14 07:36:07;;;;;;;59.75;9.93;;;;;;;19.81;69.50;98054.78;4990926;28;20041;-59
2022/04/14 07:38:32;;;;;;;52.42;9.07;;;;;;;20.15;69.24;98054.75;5003629;28;20017;-59
2022/04/14 07:40:58;;;;;;;52.55;9.68;;;;;;;20.48;66.87;98045.06;5003016;28;20489;-61
2022/04/14 07:43:23;;;;;;;65.05;9.88;;;;;;;19.67;69.37;98054.09;5003185;28;20068;-60
2022/04/14 07:45:48;;;;;;;65.22;9.90;;;;;;;20.93;65.27;98050.22;5004672;28;20668;-59
2022/04/14 07:48:16;;;;;;;77.47;10.43;;;;;;;21.58;61.99;98050.19;5001140;28;20112;-59
2022/04/14 07:50:41;;;;;;;53.95;9.27;;;;;;;21.23;61.08;98056.63;5002785;28;20038;-59
2022/04/14 07:53:07;;;;;;;59.92;9.75;;;;;;;20.58;64.89;98056.59;5004675;28;20107;-58
2022/04/14 07:55:34;;;;;;;57.70;9.38;;;;;;;20.48;62.48;98055.66;5002794;28;20043;-58
2022/04/14 07:58:07;;;;;;;79.03;10.60;;;;;;;20.53;61.47;98061.44;5002318;28;20029;-57
2022/04/14 08:00:34;;;;;;;47.75;8.77;;;;;;;21.11;59.62;98061.13;5000555;28;20535;-57
2022/04/14 08:03:01;;;;;;;67.40;10.30;;;;;;;20.90;60.49;98061.13;5001008;28;20038;-57
2022/04/14 08:05:46;;;;;;;57.17;9.07;;;;;;;20.21;61.17;98064.84;5002643;28;21724;-58
2022/04/14 08:08:17;;;;;;;56.55;8.40;;;;;;;22.39;58.62;98074.16;4998181;28;20038;-57
2022/04/14 08:10:44;;;;;;;59.92;9.50;;;;;;;22.23;55.55;98076.47;4999523;28;20038;-59
2022/04/14 08:13:11;;;;;;;62.08;9.43;;;;;;;22.60;54.80;98067.91;5001449;28;20030;-57
2022/04/14 08:15:36;;;;;;;57.88;9.00;;;;;;;22.85;53.45;98077.19;5002529;28;20037;-58
2022/04/14 08:18:03;;;;;;;50.63;8.48;;;;;;;21.95;55.67;98076.22;5003812;28;20545;-57
2022/04/14 08:20:29;;;;;;;45.33;8.60;;;;;;;21.63;57.71;98084.28;5002938;28;20044;-57
2022/04/14 08:22:57;;;;;;;43.42;8.75;;;;;;;20.88;58.35;98078.97;5004997;28;20127;-57
2022/04/14 08:25:24;;;;;;;60.33;9.60;;;;;;;20.37;58.97;98080.38;4999790;28;20800;-58
2022/04/14 08:27:53;;;;;;;65.80;9.93;;;;;;;20.11;61.00;98082.44;4998577;28;20048;-58
2022/04/14 08:30:21;;;;;;;65.60;9.90;;;;;;;20.32;61.75;98079.06;4998753;28;20039;-59
2022/04/14 08:32:48;;;;;;;52.67;8.23;;;;;;;21.92;57.21;98079.13;5000756;28;20022;-58
2022/04/14 08:35:14;;;;;;;62.25;8.88;;;;;;;20.69;58.97;98081.41;4998246;28;20037;-59
2022/04/14 08:37:41;;;;;;;49.95;8.43;;;;;;;20.54;59.64;98083.47;4999990;28;20101;-58
2022/04/14 08:40:09;;;;;;;57.88;8.75;;;;;;;22.71;54.30;98087.22;5000923;28;20044;-58
2022/04/14 08:42:39;;;;;;;64.97;9.10;;;;;;;21.87;56.02;98082.19;5002198;28;20029;-58
2022/04/14 08:45:15;;;;;;;55.72;8.80;;;;;;;23.23;52.74;98084.38;5001712;28;20407;-58
2022/04/14 08:47:41;;;;;;;66.15;9.05;;;;;;;23.34;51.19;98085.19;5004357;28;20058;-58
2022/04/14 08:50:09;;;;;;;58.15;8.88;;;;;;;24.95;48.86;98075.16;5001682;28;20036;-59
2022/04/14 08:52:37;;;;;;;64.05;9.38;;;;;;;23.68;50.18;98085.56;5001422;28;20040;-58
2022/04/14 08:55:05;;;;;;;63.53;8.75;;;;;;;22.85;51.72;98082.50;5000962;28;20030;-58
2022/04/14 08:57:31;;;;;;;68.93;9.10;;;;;;;25.00;48.50;98066.72;5001260;28;20040;-58
2022/04/14 08:59:58;;;;;;;68.57;9.43;;;;;;;25.00;47.12;98072.06;5000648;28;20034;-58
2022/04/14 09:02:25;;;;;;;58.63;8.57;;;;;;;25.47;46.22;98069.13;4999369;28;20036;-58
2022/04/14 09:04:50;;;;;;;67.53;9.45;;;;;;;25.41;46.04;98071.59;5000691;28;20116;-60
2022/04/14 09:07:16;;;;;;;54.90;8.68;;;;;;;24.71;45.64;98075.75;5001180;28;20125;-59
2022/04/14 09:09:42;;;;;;;61.20;8.48;;;;;;;26.04;44.80;98075.84;5001987;28;20128;-58
2022/04/14 09:12:09;;;;;;;50.15;7.95;;;;;;;27.12;42.75;98076.03;5005220;28;20041;-59
2022/04/14 09:14:35;;;;;;;51.88;8.35;;;;;;;26.33;42.34;98076.31;5006909;28;20041;-57
2022/04/14 09:17:02;;;;;;;56.15;8.68;;;;;;;24.65;44.44;98079.03;5006450;28;20049;-58
2022/04/14 09:19:32;;;;;;;52.03;8.35;;;;;;;25.41;42.87;98075.09;5006504;28;20029;-58
2022/04/14 09:21:58;;;;;;;51.67;8.48;;;;;;;26.08;42.98;98078.06;5005346;28;20034;-57
2022/04/14 09:24:42;;;;;;;43.95;7.40;;;;;;;26.67;42.26;98077.28;5003766;28;20065;-58
2022/04/14 09:27:21;;;;;;;43.72;7.55;;;;;;;27.20;40.95;98083.22;5004636;28;20142;-58
2022/04/14 09:29:47;;;;;;;61.03;9.05;;;;;;;27.70;39.69;98076.88;5005455;28;20082;-57
2022/04/14 09:32:30;;;;;;;46.90;7.75;;;;;;;27.11;39.92;98080.53;5004469;28;20037;-58
2022/04/14 09:34:57;;;;;;;76.32;10.18;;;;;;;26.45;40.91;98078.69;5004977;28;20461;-59
2022/04/14 09:37:23;;;;;;;59.40;8.32;;;;;;;28.84;38.18;98077.47;5004655;28;20034;-60
2022/04/14 09:40:05;;;;;;;46.85;8.05;;;;;;;27.74;39.26;98080.06;5003659;28;20084;-58
2022/04/14 09:42:39;;;;;;;48.78;7.65;;;;;;;27.35;40.06;98078.91;5009228;28;20053;-59
2022/04/14 09:45:25;;;;;;;56.58;8.82;;;;;;;27.46;38.01;98073.22;5004048;28;20113;-60
2022/04/14 09:47:52;;;;;;;48.10;7.65;;;;;;;27.42;38.64;98068.34;4975908;28;20050;-56
2022/04/14 09:50:40;;;;;;;49.25;7.68;;;;;;;27.77;38.75;98079.69;4973539;28;20030;-57
2022/04/14 09:53:07;;;;;;;59.97;8.65;;;;;;;25.58;41.39;98073.38;4973622;28;20126;-58
2022/04/14 09:55:52;;;;;;;54.20;8.35;;;;;;;28.15;38.37;98075.44;4981707;28;20080;-58
2022/04/14 09:58:20;;;;;;;56.40;8.00;;;;;;;29.03;37.09;98070.81;4985911;28;20030;-58
2022/04/14 10:00:52;;;;;;;46.72;7.95;;;;;;;30.58;34.94;98074.84;4973806;28;20038;-59
2022/04/14 10:03:26;;;;;;;51.40;7.90;;;;;;;27.49;38.05;98078.22;4976387;28;20037;-59
2022/04/14 10:05:56;;;;;;;47.53;7.80;;;;;;;26.16;40.00;98079.91;4972796;28;20045;-58
2022/04/14 10:08:25;;;;;;;45.15;7.70;;;;;;;25.77;41.38;98069.66;4973956;28;20669;-60
2022/04/14 10:11:05;;;;;;;48.80;8.00;;;;;;;29.29;36.49;98069.63;4971753;28;20038;-60
2022/04/14 10:13:39;;;;;;;67.35;8.75;;;;;;;28.98;36.46;98063.28;4968860;28;20104;-58
2022/04/14 10:16:07;;;;;;;66.50;9.07;;;;;;;27.56;37.79;98067.66;4968876;28;20030;-58
2022/04/14 10:18:32;;;;;;;68.68;9.25;;;;;;;29.31;35.29;98067.59;4969703;28;20022;-58
2022/04/14 10:20:58;;;;;;;74.88;9.95;;;;;;;28.46;34.93;98064.72;4969079;28;20045;-59
2022/04/14 10:23:26;;;;;;;79.80;10.43;;;;;;;30.07;33.40;98063.00;4970827;28;20038;-58
2022/04/14 10:25:53;;;;;;;67.60;9.68;;;;;;;28.10;36.38;98061.69;4969422;28;20030;-58
2022/04/14 10:28:20;;;;;;;53.83;8.55;;;;;;;28.62;35.50;98063.84;4970448;28;20645;-59
2022/04/14 10:30:56;;;;;;;61.35;8.90;;;;;;;28.44;36.73;98061.41;4969291;28;20459;-59
2022/04/14 10:33:22;;;;;;;63.97;8.48;;;;;;;29.31;35.92;98057.69;4969231;28;20037;-58
2022/04/14 10:35:49;;;;;;;66.20;8.15;;;;;;;29.45;35.39;98055.22;4970383;28;20461;-59
2022/04/14 10:38:44;;;;;;;71.95;8.95;;;;;;;27.75;38.10;98060.28;4971634;28;20101;-60
2022/04/14 10:41:13;;;;;;;86.72;10.43;;;;;;;26.21;39.04;98050.03;4966675;28;20070;-60
2022/04/14 10:43:41;;;;;;;70.85;9.10;;;;;;;27.98;37.67;98058.56;4968535;28;20063;-59
2022/04/14 10:46:06;;;;;;;72.35;9.57;;;;;;;26.25;40.32;98060.25;4970294;28;20077;-57
2022/04/14 10:48:32;;;;;;;77.05;10.05;;;;;;;27.53;38.77;98054.59;4970806;28;20932;-59
2022/04/14 10:51:17;;;;;;;74.20;9.40;;;;;;;27.65;38.63;98047.06;4967990;28;20053;-57
2022/04/14 10:54:04;;;;;;;72.90;9.13;;;;;;;26.61;38.46;98057.38;4969883;28;20050;-60
2022/04/14 10:56:42;;;;;;;40.97;7.15;;;;;;;29.17;37.07;98045.03;4969178;28;20081;-61
2022/04/14 10:59:14;;;;;;;75.60;9.57;;;;;;;28.24;37.45;98039.53;4970337;28;20112;-59
2022/04/14 11:01:45;;;;;;;71.80;9.27;;;;;;;28.79;37.18;98042.28;4967917;28;20568;-59
2022/04/14 11:04:36;;;;;;;56.90;8.43;;;;;;;28.82;36.19;98041.91;4971032;28;20022;-58
2022/04/14 11:07:17;;;;;;;60.78;8.05;;;;;;;29.29;35.85;98037.41;4967928;28;20042;-57
2022/04/14 11:09:48;;;;;;;77.80;9.60;;;;;;;27.76;36.64;98030.63;4970775;28;20492;-58
2022/04/14 11:12:20;;;;;;;82.25;9.88;;;;;;;27.54;37.49;98040.22;4968796;28;20603;-58
2022/04/14 11:14:46;;;;;;;82.43;9.52;;;;;;;27.80;37.30;98037.31;4969578;28;20371;-56
2022/04/14 11:17:30;;;;;;;62.10;8.50;;;;;;;27.52;37.49;98046.75;4969575;28;20038;-58
2022/04/14 11:20:13;;;;;;;84.60;9.85;;;;;;;26.57;39.42;98039.94;4968687;28;20153;-58
2022/04/14 11:23:11;;;;;;;55.85;7.82;;;;;;;27.43;38.28;98038.72;5001909;28;20034;-57